Aeroporto :
LOGIN :

Iscrizione | Disclaimer

   EN    FR    IT 

 










Sommario :    VFR   VFR Marginale   IFR   IFR Intensivo   IFR Molto Intensivo
Visibilità : 
Base nubi : 
>= 8 km
>= 3000ft
5 / 8 km
1000 / 3000 ft
1500m / 5 km
500 / 1000 ft
800 / 1500m
200 / 500 ft
< 800m
< 200 ft
Simboli :   Temporali  Nebbia  Neve Forte  Precipitazioni Forti  Vento > 20 kt
SIGMETs :   Varie  Temporali  Ghiacco  Turbolenza  Onda orograficha  Ceneri Vulcaniche






- Altitudine del aeroporto : 604 ft
- Codice IATA : LCJ


EPLL - Lodz

ULTIMO METAR :
  • 112000Z 09005KT 2400 BR NSC 01/01 Q1013

METARs OBSOLETI :
  • 111930Z 09004KT 2700 BR NSC 01/01 Q1014
  • 111900Z 09003KT 3000 BR NSC 02/01 Q1014
  • 111830Z 09004KT 3100 BR NSC 02/01 Q1014
  • 111800Z 09004KT 3200 BR NSC 02/02 Q1014
  • 111730Z 10006KT 060V160 3300 BR NSC 03/02 Q1014
  • 111700Z 10004KT 060V130 3200 BR NSC 03/02 Q1014

TAF TAF EPLL
Valido dal 11 a 18 ore il 12 a 18 ore UTC


111730Z 1118/1218 12010KT 3500 BR NSC
TEMPO 1118/1202 1200 BR
BECMG 1205/1208 CAVOK



MetMap, La meteo Aeronautica in un colpo d'occhio ! - Copyright ORBIFLY Dicembre 2007 - Disclaimer

ORBIFLY MET'MAP TEAM :

Programmazione e sviluppo : Alexandra Zaïnal
Concezione e sviluppo : Baudouin d'Aumeries
Co-Programmazione e sviluppo : Marc-Olivier Méhu
Supporto tecnico e logistico : Manuel Goepfert
Aiuto per la traduzione : Arnaldo La Scala

Contatto : metmap@orbifly.com




FONTI E CREDITI :

   NOAA